Time;durP1;ratioP1;P1;durP2;ratioP2;P2;SDS_P1;SDS_P2;PMS_P1;PMS_P2;Temp;Humidity;BMP_temperature;BMP_pressure;BME280_temperature;BME280_humidity;BME280_pressure;Samples;Min_cycle;Max_cycle;Signal;HPM_P1;HPM_P2
2022/05/14 00:01:23;;;;;;;6.13;2.05;;;12.90;99.90;;;;;;4986851;28;20027;-71
2022/05/14 00:03:49;;;;;;;3.65;1.95;;;12.90;99.90;;;;;;4968827;28;20074;-70
2022/05/14 00:06:17;;;;;;;7.47;2.67;;;12.90;99.90;;;;;;4969480;28;20054;-69
2022/05/14 00:08:44;;;;;;;5.82;2.17;;;12.90;99.90;;;;;;4986987;28;20069;-69
2022/05/14 00:13:55;;;;;;;14.95;2.70;;;12.90;99.90;;;;;;4987253;28;20037;-69
2022/05/14 00:16:23;;;;;;;6.75;2.55;;;12.90;99.90;;;;;;4974273;28;20099;-70
2022/05/14 00:18:51;;;;;;;5.05;2.10;;;12.90;99.90;;;;;;4967381;28;20063;-69
2022/05/14 00:21:18;;;;;;;7.50;1.92;;;13.00;99.90;;;;;;4949837;28;20030;-70
2022/05/14 00:23:43;;;;;;;4.68;2.05;;;13.00;99.90;;;;;;4984910;28;20050;-71
2022/05/14 00:26:09;;;;;;;7.10;2.90;;;12.90;99.90;;;;;;4985857;28;20077;-70
2022/05/14 00:28:37;;;;;;;2.58;1.50;;;12.90;99.90;;;;;;4985107;28;20034;-72
2022/05/14 00:31:04;;;;;;;4.07;1.88;;;12.90;99.90;;;;;;4985159;28;20030;-70
2022/05/14 00:33:30;;;;;;;5.70;2.05;;;12.90;99.90;;;;;;4986436;28;20041;-70
2022/05/14 00:35:57;;;;;;;5.22;1.80;;;12.90;99.90;;;;;;4986290;28;20054;-69
2022/05/14 00:38:22;;;;;;;4.32;2.00;;;12.90;99.90;;;;;;4985293;28;20035;-69
2022/05/14 00:40:59;;;;;;;5.05;2.17;;;12.90;99.90;;;;;;4985556;28;20042;-70
2022/05/14 00:43:25;;;;;;;8.70;2.10;;;12.90;99.90;;;;;;4983902;28;20725;-70
2022/05/14 00:46:15;;;;;;;6.55;2.85;;;12.90;99.90;;;;;;4985951;28;20095;-71
2022/05/14 00:48:43;;;;;;;3.58;1.88;;;12.90;99.90;;;;;;4986334;28;20031;-69
2022/05/14 00:51:13;;;;;;;4.22;1.88;;;12.90;99.90;;;;;;4986095;28;20026;-70
2022/05/14 00:53:44;;;;;;;3.72;1.92;;;12.90;99.90;;;;;;4985523;28;20082;-72
2022/05/14 00:56:18;;;;;;;5.20;1.83;;;12.90;99.90;;;;;;4986430;28;20030;-73
2022/05/14 00:58:53;;;;;;;19.83;2.05;;;12.80;99.90;;;;;;4985219;28;20027;-70
2022/05/14 01:01:19;;;;;;;4.75;2.05;;;12.80;99.90;;;;;;4986291;28;20031;-69
2022/05/14 01:03:44;;;;;;;9.25;2.33;;;12.80;99.90;;;;;;4985806;28;20400;-70
2022/05/14 01:06:14;;;;;;;6.93;2.25;;;12.80;99.90;;;;;;4985531;28;20031;-69
2022/05/14 01:08:41;;;;;;;5.32;2.08;;;12.80;99.90;;;;;;4985546;28;20030;-68
2022/05/14 01:11:07;;;;;;;8.05;2.05;;;12.80;99.90;;;;;;4985983;28;20496;-70
2022/05/14 01:13:33;;;;;;;7.05;2.35;;;12.80;99.90;;;;;;4985358;28;20031;-69
2022/05/14 01:16:05;;;;;;;9.00;2.20;;;12.80;99.90;;;;;;4986020;28;20027;-68
2022/05/14 01:18:35;;;;;;;7.47;2.63;;;12.70;99.90;;;;;;4985691;28;20058;-70
2022/05/14 01:21:26;;;;;;;5.13;2.05;;;12.70;99.90;;;;;;4985044;28;20026;-70
2022/05/14 01:26:54;;;;;;;4.03;1.75;;;12.70;99.90;;;;;;4985439;28;20062;-69
2022/05/14 01:29:23;;;;;;;3.40;2.00;;;12.70;99.90;;;;;;4984754;28;20038;-70
2022/05/14 01:31:50;;;;;;;4.57;1.85;;;12.70;99.90;;;;;;4983173;28;20027;-69
2022/05/14 01:34:20;;;;;;;6.22;2.58;;;12.80;99.90;;;;;;4976274;28;20176;-70
2022/05/14 01:36:46;;;;;;;7.35;2.25;;;12.70;99.90;;;;;;4985370;28;20030;-71
2022/05/14 01:39:12;;;;;;;5.63;2.33;;;12.60;99.90;;;;;;4968183;28;20030;-70
2022/05/14 01:41:38;;;;;;;10.60;2.60;;;12.70;99.90;;;;;;4985480;28;20119;-69
2022/05/14 01:44:04;;;;;;;6.53;2.38;;;12.60;99.90;;;;;;4985594;28;20125;-71
2022/05/14 01:46:32;;;;;;;7.00;2.72;;;12.60;99.90;;;;;;4985559;28;20038;-70
2022/05/14 01:48:58;;;;;;;13.13;2.55;;;12.60;99.90;;;;;;4984986;28;20047;-69
2022/05/14 01:51:24;;;;;;;8.82;2.60;;;12.60;99.90;;;;;;4985642;28;20098;-69
2022/05/14 01:53:51;;;;;;;8.02;2.20;;;12.50;99.90;;;;;;4987117;28;20058;-69
2022/05/14 01:56:17;;;;;;;7.82;2.13;;;12.50;99.90;;;;;;4988682;28;20030;-70
2022/05/14 01:58:42;;;;;;;6.78;2.75;;;12.50;99.90;;;;;;4989178;28;20023;-68
2022/05/14 02:01:21;;;;;;;4.35;2.05;;;12.50;99.90;;;;;;4988640;28;20050;-70
2022/05/14 02:03:58;;;;;;;4.20;2.25;;;12.50;99.90;;;;;;4989146;28;20034;-69
2022/05/14 02:06:25;;;;;;;5.90;2.20;;;12.50;99.90;;;;;;4989364;28;20410;-69
2022/05/14 02:08:51;;;;;;;6.88;1.98;;;12.40;99.90;;;;;;4988233;28;20027;-69
2022/05/14 02:11:16;;;;;;;4.40;2.38;;;12.40;99.90;;;;;;4988662;28;20058;-70
2022/05/14 02:13:43;;;;;;;12.65;2.47;;;12.40;99.90;;;;;;4988353;28;20031;-69
2022/05/14 02:16:16;;;;;;;6.72;2.80;;;12.40;99.90;;;;;;4988293;28;20050;-69
2022/05/14 02:18:41;;;;;;;8.88;2.63;;;12.30;99.90;;;;;;4971455;28;20031;-69
2022/05/14 02:21:08;;;;;;;3.88;1.90;;;12.30;99.90;;;;;;4988495;28;20035;-69
2022/05/14 02:23:38;;;;;;;8.25;2.42;;;12.30;99.90;;;;;;4988399;28;20050;-70
2022/05/14 02:26:05;;;;;;;12.15;2.30;;;12.30;99.90;;;;;;4988844;28;20030;-70
2022/05/14 02:28:32;;;;;;;11.43;2.20;;;12.20;99.90;;;;;;4988496;28;20027;-70
2022/05/14 02:30:57;;;;;;;4.82;2.58;;;12.20;99.90;;;;;;4987145;28;20045;-68
2022/05/14 02:33:23;;;;;;;3.75;1.92;;;12.20;99.90;;;;;;4988324;28;20070;-70
2022/05/14 02:35:49;;;;;;;4.20;1.70;;;12.10;99.90;;;;;;4976162;28;20055;-69
2022/05/14 02:38:15;;;;;;;5.72;2.17;;;12.10;99.90;;;;;;4967835;28;20027;-71
2022/05/14 02:40:42;;;;;;;19.02;2.35;;;12.10;99.90;;;;;;4977737;28;20034;-69
2022/05/14 02:43:08;;;;;;;4.47;2.10;;;12.10;99.90;;;;;;4970627;28;20030;-70
2022/05/14 02:45:34;;;;;;;6.57;2.33;;;12.10;99.90;;;;;;4988346;28;20391;-71
2022/05/14 02:48:01;;;;;;;4.38;2.40;;;12.10;99.90;;;;;;4988535;28;20095;-71
2022/05/14 02:50:26;;;;;;;8.38;2.80;;;12.10;99.90;;;;;;4987883;28;20026;-69
2022/05/14 02:52:52;;;;;;;7.63;3.17;;;12.00;99.90;;;;;;4987713;28;20027;-70
2022/05/14 02:55:27;;;;;;;3.63;1.90;;;12.00;99.90;;;;;;4987898;28;20031;-70
2022/05/14 02:57:52;;;;;;;;;;;12.00;99.90;;;;;;4988250;28;20045;-70
2022/05/14 03:00:20;;;;;;;5.88;2.00;;;12.00;99.90;;;;;;4988150;28;20378;-69
2022/05/14 03:02:46;;;;;;;3.10;2.03;;;12.00;99.90;;;;;;4988034;28;20062;-71
2022/05/14 03:05:14;;;;;;;4.65;2.22;;;12.00;99.90;;;;;;4986704;28;20049;-69
2022/05/14 03:07:40;;;;;;;11.80;3.05;;;12.00;99.90;;;;;;4987586;28;20038;-68
2022/05/14 03:10:07;;;;;;;10.82;3.50;;;12.00;99.90;;;;;;4988253;28;20037;-70
2022/05/14 03:12:32;;;;;;;10.75;2.63;;;11.90;99.90;;;;;;4984151;28;20499;-70
2022/05/14 03:14:58;;;;;;;5.22;2.65;;;11.90;99.90;;;;;;4968849;28;20027;-70
2022/05/14 03:17:23;;;;;;;12.95;3.22;;;11.90;99.90;;;;;;4968640;28;20031;-70
2022/05/14 03:19:50;;;;;;;10.13;3.25;;;11.90;99.90;;;;;;4968333;28;20039;-70
2022/05/14 03:22:16;;;;;;;5.97;2.42;;;11.90;99.90;;;;;;4966718;28;20035;-70
2022/05/14 03:24:42;;;;;;;13.48;2.95;;;11.90;99.90;;;;;;4968186;28;20045;-70
2022/05/14 03:27:08;;;;;;;3.80;2.17;;;11.90;99.90;;;;;;4968314;28;20035;-70
2022/05/14 03:29:42;;;;;;;6.68;2.15;;;11.90;99.90;;;;;;4968478;28;20026;-70
2022/05/14 03:32:08;;;;;;;19.00;4.30;;;11.90;99.90;;;;;;4951022;29;20035;-71
2022/05/14 03:34:36;;;;;;;4.55;2.53;;;11.90;99.90;;;;;;4968030;28;20027;-72
2022/05/14 03:37:03;;;;;;;12.23;3.28;;;11.90;99.90;;;;;;4967884;28;20062;-70
2022/05/14 03:39:28;;;;;;;5.07;2.13;;;11.90;99.90;;;;;;4971161;28;20024;-68
2022/05/14 03:42:15;;;;;;;9.10;2.85;;;11.90;99.90;;;;;;4970066;28;20053;-69
2022/05/14 03:44:41;;;;;;;11.27;2.33;;;11.90;99.90;;;;;;4986861;28;20061;-70
2022/05/14 03:47:06;;;;;;;8.30;2.83;;;11.90;99.90;;;;;;4969637;28;20031;-69
2022/05/14 03:49:32;;;;;;;6.13;2.50;;;11.90;99.90;;;;;;4987455;28;20054;-70
2022/05/14 03:51:58;;;;;;;4.45;2.55;;;11.90;99.90;;;;;;4986698;28;20043;-70
2022/05/14 03:54:24;;;;;;;5.50;2.58;;;11.90;99.90;;;;;;4987207;28;20034;-69
2022/05/14 03:56:49;;;;;;;9.15;2.92;;;11.90;99.90;;;;;;4987335;28;20072;-69
2022/05/14 03:59:15;;;;;;;6.05;3.00;;;11.90;99.90;;;;;;4987205;28;20063;-68
2022/05/14 04:01:41;;;;;;;4.43;2.17;;;12.00;99.90;;;;;;4969231;28;20039;-68
2022/05/14 04:04:09;;;;;;;8.77;3.58;;;12.00;99.90;;;;;;4985981;28;20401;-69
2022/05/14 04:06:34;;;;;;;10.07;2.90;;;12.00;99.90;;;;;;4986939;28;20062;-68
2022/05/14 04:09:01;;;;;;;8.23;2.75;;;12.00;99.90;;;;;;4969384;28;20031;-69
2022/05/14 04:11:27;;;;;;;7.93;3.22;;;12.00;99.90;;;;;;4966861;28;20391;-69
2022/05/14 04:13:53;;;;;;;15.07;2.45;;;12.10;99.90;;;;;;4981160;28;20031;-67
2022/05/14 04:16:18;;;;;;;9.95;2.38;;;12.10;99.90;;;;;;4983807;28;20033;-70
2022/05/14 04:18:45;;;;;;;10.73;3.33;;;12.10;99.90;;;;;;4980173;28;20058;-69
2022/05/14 04:21:11;;;;;;;14.43;2.10;;;12.10;99.90;;;;;;4970951;28;20061;-68
2022/05/14 04:23:36;;;;;;;8.73;2.38;;;12.20;99.90;;;;;;4971331;28;20051;-69
2022/05/14 04:26:03;;;;;;;12.32;3.28;;;12.10;99.90;;;;;;4978409;28;20138;-68
2022/05/14 04:28:29;;;;;;;9.63;2.83;;;12.10;99.90;;;;;;4972588;28;20025;-68
2022/05/14 04:30:55;;;;;;;15.57;3.13;;;12.20;99.90;;;;;;4984128;28;20031;-68
2022/05/14 04:33:24;;;;;;;5.20;3.05;;;12.10;99.90;;;;;;4975250;28;20026;-68
2022/05/14 04:35:50;;;;;;;15.05;3.30;;;12.10;99.90;;;;;;4973802;28;20117;-68
2022/05/14 04:38:15;;;;;;;11.43;3.90;;;12.10;99.90;;;;;;4976936;28;20088;-68
2022/05/14 04:40:42;;;;;;;6.88;3.03;;;12.10;99.90;;;;;;4979735;28;20220;-69
2022/05/14 04:43:10;;;;;;;6.55;2.42;;;12.10;99.90;;;;;;4985532;28;20035;-71
2022/05/14 04:45:38;;;;;;;10.77;3.22;;;12.10;99.90;;;;;;4978657;28;20499;-68
2022/05/14 04:48:05;;;;;;;9.27;2.92;;;12.10;99.90;;;;;;4986226;28;20074;-70
2022/05/14 04:50:32;;;;;;;16.60;3.67;;;12.10;99.90;;;;;;4981405;28;20023;-70
2022/05/14 04:52:59;;;;;;;10.68;2.85;;;12.10;99.90;;;;;;4974324;28;20045;-69
2022/05/14 04:55:25;;;;;;;15.63;3.47;;;12.10;99.90;;;;;;4985095;28;20061;-69
2022/05/14 04:57:50;;;;;;;8.52;3.70;;;12.20;99.90;;;;;;4970827;28;20110;-69
2022/05/14 05:00:17;;;;;;;5.00;2.50;;;12.10;99.90;;;;;;4979257;28;20487;-68
2022/05/14 05:05:29;;;;;;;10.70;3.00;;;12.10;99.90;;;;;;4971884;28;20054;-68
2022/05/14 05:07:54;;;;;;;14.60;3.45;;;12.10;99.90;;;;;;4982542;28;20467;-68
2022/05/14 05:10:20;;;;;;;5.85;3.13;;;12.10;99.90;;;;;;4964986;28;20087;-68
2022/05/14 05:12:46;;;;;;;20.15;3.20;;;12.10;99.90;;;;;;4965779;28;20033;-69
2022/05/14 05:15:12;;;;;;;8.82;2.75;;;12.20;99.90;;;;;;4967311;28;20046;-69
2022/05/14 05:17:38;;;;;;;7.70;3.72;;;12.20;99.90;;;;;;4973383;28;20035;-68
2022/05/14 05:20:05;;;;;;;13.23;3.67;;;12.30;99.90;;;;;;4978597;28;20031;-68
2022/05/14 05:22:31;;;;;;;11.18;3.65;;;12.30;99.90;;;;;;4985247;28;20498;-69
2022/05/14 05:24:58;;;;;;;12.02;3.88;;;12.30;99.90;;;;;;4974241;28;20038;-70
2022/05/14 05:27:23;;;;;;;7.00;3.08;;;12.30;99.90;;;;;;4978476;28;20070;-68
2022/05/14 05:29:49;;;;;;;8.10;3.30;;;12.30;99.90;;;;;;4965902;28;20474;-69
2022/05/14 05:32:15;;;;;;;14.90;4.00;;;12.40;99.90;;;;;;4974251;28;20038;-71
2022/05/14 05:34:41;;;;;;;7.20;3.42;;;12.40;99.90;;;;;;4984693;28;20023;-71
2022/05/14 05:37:06;;;;;;;9.77;3.80;;;12.40;99.90;;;;;;4985352;28;20106;-69
2022/05/14 05:39:32;;;;;;;6.65;3.00;;;12.50;99.90;;;;;;4985691;28;20027;-69
2022/05/14 05:41:58;;;;;;;7.28;3.67;;;12.50;99.90;;;;;;4985662;28;20387;-69
2022/05/14 05:44:27;;;;;;;11.00;3.22;;;12.60;99.90;;;;;;4974891;28;20046;-69
2022/05/14 05:46:53;;;;;;;12.13;3.53;;;12.60;99.90;;;;;;4984154;28;20038;-68
2022/05/14 05:49:19;;;;;;;13.10;4.30;;;12.70;99.90;;;;;;4985298;28;20073;-69
2022/05/14 05:51:45;;;;;;;19.25;4.78;;;12.60;99.90;;;;;;4984269;28;20082;-69
2022/05/14 05:56:59;;;;;;;;;;;12.80;99.90;;;;;;4981098;28;20054;-68
2022/05/14 05:59:27;;;;;;;11.27;3.08;;;12.90;99.90;;;;;;4969318;28;19936;-69
2022/05/14 06:01:53;;;;;;;11.35;3.67;;;13.00;99.90;;;;;;4978154;28;20090;-68
2022/05/14 06:04:20;;;;;;;9.27;3.42;;;13.00;99.90;;;;;;4967599;28;20046;-69
2022/05/14 06:06:46;;;;;;;13.30;3.25;;;13.10;99.90;;;;;;4985268;28;20031;-68
2022/05/14 06:09:14;;;;;;;16.60;4.32;;;13.10;99.90;;;;;;4971645;28;20031;-69
2022/05/14 06:11:42;;;;;;;15.65;3.47;;;13.30;99.90;;;;;;4983960;28;20030;-70
2022/05/14 06:14:09;;;;;;;13.57;3.92;;;13.30;99.90;;;;;;4984929;28;20054;-71
2022/05/14 06:16:34;;;;;;;11.60;3.50;;;13.30;99.90;;;;;;4984952;28;20038;-70
2022/05/14 06:19:00;;;;;;;11.13;3.38;;;13.40;99.90;;;;;;4982944;28;20084;-69
2022/05/14 06:21:27;;;;;;;10.63;3.55;;;13.40;99.90;;;;;;4974855;28;20031;-70
2022/05/14 06:23:53;;;;;;;15.23;3.88;;;13.50;99.90;;;;;;4984069;28;20094;-69
2022/05/14 06:26:22;;;;;;;20.95;4.45;;;13.60;99.90;;;;;;4984707;28;20038;-69
2022/05/14 06:28:48;;;;;;;20.67;4.45;;;13.70;99.90;;;;;;4985025;28;20087;-72
2022/05/14 06:31:16;;;;;;;11.20;3.47;;;13.70;99.90;;;;;;4967790;28;20030;-71
2022/05/14 06:33:46;;;;;;;9.43;3.60;;;13.80;99.90;;;;;;4985085;28;20065;-68
2022/05/14 06:36:12;;;;;;;16.10;3.90;;;13.80;99.90;;;;;;4985031;28;20061;-68
2022/05/14 06:38:38;;;;;;;26.27;4.47;;;13.90;99.90;;;;;;4985047;28;20027;-71
2022/05/14 06:41:11;;;;;;;17.27;3.10;;;13.90;99.90;;;;;;4986811;28;20027;-68
2022/05/14 06:43:37;;;;;;;19.92;4.60;;;13.90;99.90;;;;;;4981566;28;20447;-70
2022/05/14 06:46:04;;;;;;;8.68;3.70;;;14.00;99.90;;;;;;4986267;28;20031;-69
2022/05/14 06:48:30;;;;;;;9.65;3.47;;;14.00;99.90;;;;;;4966590;28;20122;-72
2022/05/14 06:50:59;;;;;;;10.52;3.90;;;14.10;99.90;;;;;;4985548;28;20113;-75
2022/05/14 06:53:25;;;;;;;12.95;3.33;;;14.10;99.90;;;;;;4985222;28;20026;-70
2022/05/14 06:55:54;;;;;;;6.88;3.47;;;14.20;99.90;;;;;;4987362;28;20102;-70
2022/05/14 06:58:24;;;;;;;15.38;3.45;;;14.30;99.90;;;;;;4986836;28;20041;-69
2022/05/14 07:00:50;;;;;;;13.88;3.42;;;14.40;99.90;;;;;;4987813;28;20035;-67
2022/05/14 07:08:45;;;;;;;15.00;3.63;;;14.40;99.90;;;;;;4987962;28;20077;-71
2022/05/14 07:11:12;;;;;;;19.88;3.00;;;14.50;99.90;;;;;;4988035;28;20063;-68
2022/05/14 07:13:38;;;;;;;11.02;3.05;;;14.40;99.90;;;;;;4980088;28;20054;-71
2022/05/14 07:16:05;;;;;;;13.57;3.58;;;14.50;99.90;;;;;;4978557;28;20027;-72
2022/05/14 07:18:34;;;;;;;13.50;3.88;;;14.60;99.90;;;;;;4968661;28;20069;-73
2022/05/14 07:21:00;;;;;;;14.18;2.90;;;14.60;99.90;;;;;;4981852;28;20408;-70
2022/05/14 07:23:26;;;;;;;22.13;4.40;;;14.70;99.90;;;;;;4969483;28;20050;-72
2022/05/14 07:25:52;;;;;;;11.38;3.10;;;14.70;99.90;;;;;;4987527;28;20108;-69
2022/05/14 07:28:17;;;;;;;15.57;3.60;;;14.70;99.90;;;;;;4987300;28;20063;-68
2022/05/14 07:30:43;;;;;;;5.43;2.15;;;14.90;99.90;;;;;;4988067;28;20026;-69
2022/05/14 07:33:09;;;;;;;7.45;2.70;;;14.90;99.90;;;;;;4987658;28;20027;-69
2022/05/14 07:35:35;;;;;;;5.28;2.47;;;14.90;99.90;;;;;;4987501;28;20023;-69
2022/05/14 07:38:04;;;;;;;4.93;2.80;;;15.00;99.90;;;;;;4987538;28;20034;-71
2022/05/14 07:40:32;;;;;;;13.00;3.65;;;15.10;99.90;;;;;;4987721;28;20046;-71
2022/05/14 07:43:01;;;;;;;7.72;2.65;;;15.20;99.90;;;;;;4987414;28;20034;-71
2022/05/14 07:45:45;;;;;;;8.52;2.63;;;15.30;99.90;;;;;;4970270;28;20114;-70
2022/05/14 07:48:27;;;;;;;4.88;2.17;;;15.30;99.90;;;;;;4987369;28;20037;-74
2022/05/14 07:50:53;;;;;;;11.98;3.08;;;15.40;99.90;;;;;;4986843;28;20039;-68
2022/05/14 07:53:20;;;;;;;6.07;2.15;;;15.50;99.90;;;;;;4987340;28;20037;-68
2022/05/14 07:55:47;;;;;;;11.73;2.22;;;15.60;99.90;;;;;;4986164;28;20033;-69
2022/05/14 07:58:13;;;;;;;10.32;2.08;;;15.60;99.90;;;;;;4977799;28;20018;-71
2022/05/14 08:00:39;;;;;;;7.45;1.92;;;15.70;99.90;;;;;;4972547;28;20030;-69
2022/05/14 08:03:06;;;;;;;9.40;2.42;;;15.80;99.90;;;;;;4985207;28;20078;-68
2022/05/14 08:05:33;;;;;;;9.63;1.75;;;15.80;99.90;;;;;;4986785;28;20035;-68
2022/05/14 08:07:59;;;;;;;3.90;1.88;;;15.90;99.90;;;;;;4986896;28;20067;-70
2022/05/14 08:10:25;;;;;;;17.10;2.50;;;16.00;99.90;;;;;;4968968;28;20037;-69
2022/05/14 08:12:56;;;;;;;5.80;1.73;;;16.10;99.90;;;;;;4986781;28;20047;-70
2022/05/14 08:15:25;;;;;;;4.60;1.10;;;16.10;99.90;;;;;;4986844;28;20043;-69
2022/05/14 08:17:51;;;;;;;8.48;1.38;;;16.20;99.90;;;;;;4986122;28;20082;-69
2022/05/14 08:20:16;;;;;;;4.80;1.33;;;16.30;99.90;;;;;;4986891;28;20361;-72
2022/05/14 08:25:27;;;;;;;;;;;16.30;99.90;;;;;;4986428;28;20046;-71
2022/05/14 08:27:54;;;;;;;4.30;1.27;;;16.40;99.90;;;;;;4968306;28;20004;-71
2022/05/14 08:30:32;;;;;;;4.75;1.83;;;16.30;99.90;;;;;;4985759;28;20046;-73
2022/05/14 08:32:58;;;;;;;6.13;1.30;;;16.40;99.90;;;;;;4985871;28;20309;-67
2022/05/14 08:35:25;;;;;;;5.05;1.48;;;16.50;99.90;;;;;;4985616;28;20502;-70
2022/05/14 08:37:53;;;;;;;5.78;1.55;;;16.40;99.90;;;;;;4984521;28;20119;-71
2022/05/14 08:40:30;;;;;;;4.70;1.40;;;16.40;99.90;;;;;;4967455;28;20092;-67
2022/05/14 08:43:03;;;;;;;9.38;1.98;;;16.40;99.90;;;;;;4985233;28;20051;-68
2022/05/14 08:45:33;;;;;;;7.95;1.63;;;16.50;99.90;;;;;;4972826;28;20038;-71
2022/05/14 08:48:22;;;;;;;8.43;1.85;;;16.70;99.90;;;;;;4983968;28;20089;-70
2022/05/14 08:51:07;;;;;;;6.00;1.38;;;16.90;99.90;;;;;;4967827;28;20542;-69
2022/05/14 08:53:37;;;;;;;4.18;1.50;;;17.10;99.90;;;;;;4985994;28;20086;-69
2022/05/14 08:56:12;;;;;;;7.03;1.80;;;17.30;99.90;;;;;;4985830;28;20031;-71
2022/05/14 08:59:01;;;;;;;5.82;1.73;;;17.40;99.90;;;;;;4968119;28;20030;-70
2022/05/14 09:01:31;;;;;;;10.68;1.80;;;17.60;99.90;;;;;;4974526;28;20031;-70
2022/05/14 09:03:57;;;;;;;3.05;1.67;;;17.70;99.90;;;;;;4984785;28;20042;-70
2022/05/14 09:06:22;;;;;;;12.65;2.00;;;17.70;99.90;;;;;;4967722;28;20101;-71
2022/05/14 09:08:49;;;;;;;5.90;2.00;;;17.70;99.90;;;;;;4976233;28;20479;-67
2022/05/14 09:11:25;;;;;;;14.45;1.60;;;17.60;99.90;;;;;;4982866;28;20535;-74
2022/05/14 09:13:59;;;;;;;3.50;1.52;;;17.60;99.90;;;;;;4975008;28;20038;-68
2022/05/14 09:16:36;;;;;;;11.15;2.22;;;17.60;99.90;;;;;;4971126;28;20057;-72
2022/05/14 09:19:16;;;;;;;7.55;1.50;;;17.70;99.90;;;;;;4976502;28;20078;-72
2022/05/14 09:21:57;;;;;;;10.93;2.03;;;17.70;99.90;;;;;;4979649;28;20042;-70
2022/05/14 09:24:28;;;;;;;7.35;2.42;;;17.90;99.90;;;;;;4973532;28;20078;-71
2022/05/14 09:27:11;;;;;;;15.48;2.13;;;17.90;99.90;;;;;;4958622;28;20034;-72
2022/05/14 09:29:40;;;;;;;5.80;2.08;;;18.00;99.90;;;;;;4980196;28;20026;-73
2022/05/14 09:32:15;;;;;;;10.20;1.77;;;18.10;99.90;;;;;;4981637;28;20066;-68
2022/05/14 09:34:40;;;;;;;5.50;2.20;;;18.20;99.90;;;;;;4983481;28;20065;-70
2022/05/14 09:37:11;;;;;;;10.70;2.22;;;18.30;99.90;;;;;;4984613;28;20039;-71
2022/05/14 09:39:38;;;;;;;3.92;1.90;;;18.30;99.90;;;;;;4984553;28;20031;-67
2022/05/14 09:42:05;;;;;;;2.00;1.33;;;18.40;99.90;;;;;;4981913;28;20538;-68
2022/05/14 09:44:45;;;;;;;13.50;2.45;;;18.70;99.90;;;;;;4980172;28;20094;-68
2022/05/14 09:47:15;;;;;;;8.63;2.40;;;18.80;99.90;;;;;;4975492;28;20042;-71
2022/05/14 09:49:54;;;;;;;5.13;1.45;;;18.70;99.90;;;;;;4971059;28;20038;-67
2022/05/14 09:52:25;;;;;;;7.05;2.08;;;18.60;99.90;;;;;;4975528;28;20038;-68
2022/05/14 09:54:52;;;;;;;13.07;2.17;;;18.50;99.90;;;;;;4971580;28;20036;-71
2022/05/14 09:57:28;;;;;;;9.23;1.92;;;18.40;99.90;;;;;;4982586;28;20085;-74
2022/05/14 10:00:08;;;;;;;14.05;1.85;;;18.30;99.90;;;;;;4961417;28;20131;-76
2022/05/14 10:02:51;;;;;;;5.40;1.60;;;18.30;99.90;;;;;;4969469;28;20030;-71
2022/05/14 10:05:54;;;;;;;7.70;2.88;;;18.30;99.90;;;;;;4971436;28;20054;-71
2022/05/14 10:08:41;;;;;;;5.38;2.13;;;18.30;99.90;;;;;;4954777;28;20031;-68
2022/05/14 10:11:44;;;;;;;12.93;2.38;;;18.20;99.90;;;;;;4961016;28;20031;-72
2022/05/14 10:14:26;;;;;;;6.18;1.90;;;18.10;99.90;;;;;;4979738;28;20035;-72
2022/05/14 10:17:16;;;;;;;3.55;1.50;;;18.10;99.90;;;;;;4985986;28;20030;-73
2022/05/14 10:19:59;;;;;;;11.77;2.13;;;18.30;99.90;;;;;;4987281;28;20026;-74
2022/05/14 10:28:44;;;;;;;10.65;2.38;;;18.60;99.90;;;;;;4974510;28;20040;-71
2022/05/14 10:31:17;;;;;;;7.13;1.95;;;18.70;99.90;;;;;;4969649;28;20039;-72
2022/05/14 10:33:43;;;;;;;11.05;1.88;;;19.00;99.90;;;;;;4969593;28;20067;-74
2022/05/14 10:36:44;;;;;;;6.95;1.73;;;19.00;99.90;;;;;;4975361;28;20094;-73
2022/05/14 10:39:54;;;;;;;10.25;2.28;;;18.80;99.90;;;;;;4980623;28;20031;-74
2022/05/14 10:42:37;;;;;;;6.90;2.15;;;18.80;99.90;;;;;;4968272;28;20077;-70
2022/05/14 10:45:14;;;;;;;6.68;2.38;;;18.70;99.90;;;;;;4988177;28;20049;-72
2022/05/14 10:47:47;;;;;;;4.13;1.63;;;18.50;99.90;;;;;;4988056;28;20050;-68
2022/05/14 10:50:17;;;;;;;9.10;2.03;;;18.40;99.90;;;;;;4987767;28;20029;-75
2022/05/14 10:52:44;;;;;;;9.13;2.13;;;18.30;99.90;;;;;;4970036;28;20367;-68
2022/05/14 10:55:25;;;;;;;10.02;2.40;;;18.30;99.90;;;;;;4970350;28;20114;-72
2022/05/14 10:57:56;;;;;;;12.48;2.28;;;18.10;99.90;;;;;;4966805;28;20038;-73
2022/05/14 11:00:39;;;;;;;16.42;2.70;;;18.00;99.90;;;;;;4977148;28;20047;-70
2022/05/14 11:03:26;;;;;;;7.25;2.20;;;18.00;99.90;;;;;;4968273;28;20019;-68
2022/05/14 11:06:00;;;;;;;4.03;1.88;;;18.30;99.90;;;;;;4968632;28;20377;-71
2022/05/14 11:08:31;;;;;;;;;;;18.60;99.90;;;;;;4953180;28;20039;-70
2022/05/14 11:11:09;;;;;;;4.80;1.42;;;18.60;99.90;;;;;;4976600;28;19911;-68
2022/05/14 11:13:36;;;;;;;5.78;1.60;;;18.60;99.90;;;;;;4950901;28;20035;-68
2022/05/14 11:16:09;;;;;;;10.57;2.08;;;18.50;99.90;;;;;;4984316;28;20031;-70
2022/05/14 11:18:55;;;;;;;12.65;2.17;;;18.40;99.90;;;;;;4987087;28;20081;-70
2022/05/14 11:21:43;;;;;;;10.13;2.58;;;18.30;99.90;;;;;;4982926;28;20031;-72
2022/05/14 11:24:11;;;;;;;9.77;1.67;;;18.20;99.90;;;;;;4967194;28;20066;-68
2022/05/14 11:26:53;;;;;;;12.77;2.75;;;18.20;99.90;;;;;;4966871;28;20027;-71
2022/05/14 11:29:25;;;;;;;14.55;2.67;;;18.30;99.90;;;;;;4972215;28;20061;-68
2022/05/14 11:32:14;;;;;;;8.77;2.33;;;18.30;99.90;;;;;;4986983;28;20046;-68
2022/05/14 11:34:52;;;;;;;12.38;1.75;;;18.30;99.90;;;;;;4972993;28;20047;-70
2022/05/14 11:37:37;;;;;;;13.80;2.28;;;18.30;99.90;;;;;;4978259;28;20066;-72
2022/05/14 11:40:07;;;;;;;6.20;1.73;;;18.30;99.90;;;;;;4968198;28;20053;-69
2022/05/14 11:42:33;;;;;;;5.45;1.73;;;18.60;99.90;;;;;;4971621;28;20095;-70
2022/05/14 11:45:11;;;;;;;7.57;2.05;;;18.80;99.90;;;;;;4973249;28;20043;-68
2022/05/14 11:47:50;;;;;;;9.07;1.90;;;19.10;99.90;;;;;;4976630;28;20031;-68
2022/05/14 11:50:19;;;;;;;11.40;2.25;;;19.10;99.90;;;;;;4975552;28;20028;-70
2022/05/14 11:53:06;;;;;;;7.07;1.80;;;19.10;99.90;;;;;;4966291;28;20027;-67
2022/05/14 11:56:07;;;;;;;10.25;2.08;;;18.90;99.90;;;;;;4967984;28;20098;-72
2022/05/14 11:59:03;;;;;;;5.78;1.80;;;18.80;99.90;;;;;;4959363;28;20117;-70
2022/05/14 12:01:36;;;;;;;8.02;1.95;;;18.70;99.90;;;;;;4980173;28;20066;-73
2022/05/14 12:04:11;;;;;;;4.25;1.88;;;18.80;99.90;;;;;;4986871;28;20043;-74
2022/05/14 12:07:06;;;;;;;9.75;2.60;;;18.90;99.90;;;;;;4980017;28;20034;-70
2022/05/14 12:09:53;;;;;;;8.40;2.05;;;19.10;99.90;;;;;;4975008;28;20107;-71
2022/05/14 12:12:28;;;;;;;5.45;1.80;;;19.30;99.90;;;;;;4970750;28;20039;-69
2022/05/14 12:14:55;;;;;;;7.85;1.58;;;19.30;99.90;;;;;;4975550;28;20023;-70
2022/05/14 12:17:22;;;;;;;9.18;2.53;;;19.20;99.90;;;;;;4977491;28;20521;-67
2022/05/14 12:19:55;;;;;;;3.80;1.70;;;18.90;99.90;;;;;;4948854;29;20035;-69
2022/05/14 12:22:25;;;;;;;9.55;2.92;;;18.80;99.90;;;;;;4966467;28;20031;-69
2022/05/14 12:24:59;;;;;;;6.75;2.20;;;18.60;99.90;;;;;;4967033;28;20039;-72
2022/05/14 12:27:26;;;;;;;12.95;2.40;;;18.40;99.90;;;;;;4974830;28;20501;-71
2022/05/14 12:30:12;;;;;;;7.43;2.97;;;18.30;99.90;;;;;;4977519;28;20066;-70
2022/05/14 12:35:30;;;;;;;5.82;2.38;;;18.30;99.90;;;;;;4985975;28;20050;-70
2022/05/14 12:37:59;;;;;;;12.63;3.42;;;18.30;99.90;;;;;;4985205;28;20065;-68
2022/05/14 12:40:30;;;;;;;15.55;2.88;;;18.30;99.90;;;;;;4986009;28;20038;-68
2022/05/14 12:42:57;;;;;;;6.60;2.10;;;18.20;99.90;;;;;;4967519;28;20026;-69
2022/05/14 12:45:38;;;;;;;9.80;2.22;;;18.20;99.90;;;;;;4984974;28;20131;-69
2022/05/14 12:48:06;;;;;;;8.48;2.40;;;18.10;99.90;;;;;;4967690;28;20035;-69
2022/05/14 12:50:33;;;;;;;10.82;2.25;;;17.90;99.90;;;;;;4971107;28;20035;-69
2022/05/14 12:53:05;;;;;;;18.23;2.67;;;18.00;99.90;;;;;;4985884;28;20067;-68
2022/05/14 12:55:41;;;;;;;8.00;2.17;;;18.00;99.90;;;;;;4985286;28;20114;-68
2022/05/14 12:58:09;;;;;;;8.10;2.15;;;17.90;99.90;;;;;;4986029;28;20073;-69
2022/05/14 13:00:38;;;;;;;8.40;2.65;;;17.90;99.90;;;;;;4985457;28;20147;-69
2022/05/14 13:03:20;;;;;;;9.73;3.25;;;17.90;99.90;;;;;;4975326;28;20063;-68
2022/05/14 13:05:55;;;;;;;3.58;2.13;;;17.90;99.90;;;;;;4965914;28;20104;-69
2022/05/14 13:08:23;;;;;;;5.35;2.17;;;17.90;99.90;;;;;;4966217;28;20069;-68
2022/05/14 13:11:12;;;;;;;5.03;2.17;;;18.10;99.90;;;;;;4969447;28;20031;-68
2022/05/14 13:13:41;;;;;;;7.72;2.53;;;18.20;99.90;;;;;;4983245;28;20027;-68
2022/05/14 13:16:23;;;;;;;17.33;3.13;;;18.30;99.90;;;;;;4970787;28;20034;-69
2022/05/14 13:19:01;;;;;;;6.60;1.73;;;18.40;99.90;;;;;;4959654;28;20118;-69
2022/05/14 13:21:34;;;;;;;7.10;2.65;;;18.40;99.90;;;;;;4974153;28;20427;-71
2022/05/14 13:24:05;;;;;;;8.43;2.78;;;18.40;99.90;;;;;;4973652;28;20060;-70
2022/05/14 13:26:33;;;;;;;12.20;2.78;;;18.30;99.90;;;;;;4984164;28;20035;-68
2022/05/14 13:29:31;;;;;;;7.63;2.55;;;18.30;99.90;;;;;;4984870;28;20539;-71